KLUF/LUF METAR and TAF weather

Enter ICAO airport designator
Station Type Date Time Source
KLUF METAR 2019/02/16 00:58 UTC NOAA

KLUF 160058Z AUTO 21009KT 10SM BKN190 17/06 A2994 RMK AO2 SLP136 T01690055 $


Station Type Date Time Source
KLUF Decoded METAR 2019/02/16 00:58 UTC NOAA

Luke Air Force Base / Phoenix, AZ, United States (KLUF) 33-32N 112-23W 332M
Feb 15, 2019 - 07:58 PM EST / 2019.02.16 0058 UTC
Wind: from the SSW (210 degrees) at 10 MPH (9 KT):0
Visibility: 10 mile(s):0
Sky conditions: mostly cloudy
Temperature: 62.4 F (16.9 C)
Dew Point: 41.9 F (5.5 C)
Relative Humidity: 46%
Pressure (altimeter): 29.94 in. Hg (1013 hPa)
ob: KLUF 160058Z AUTO 21009KT 10SM BKN190 17/06 A2994 RMK AO2 SLP136 T01690055
cycle: 1

Station Type Date Time Source
KLUF TAF 2019/02/15 20:12 UTC NOAA

TAF TAF KLUF 152005Z 1520/1702 24009KT 9999 FEW050 SCT100 QNH2991INS
BECMG 1603/1604 VRB06KT 9999 FEW040 SCT200 QNH2992INS
BECMG 1614/1615 26009KT 9999 SCT050 QNH2989INS TX22/1522Z TN09/1614Z


Example: see airport list